TimeWET,TemperatureF,Dew PointF,Humidity,Sea Level PressureIn,VisibilityMPH,Wind Direction,Wind SpeedMPH,Gust SpeedMPH,PrecipitationIn,Events,Conditions,WindDirDegrees,DateUTC
12:00 AM,60,60,100,29.96,6,SSW,5.8,,,,Mostly Cloudy,210,2013-11-24 00:00:00
12:00 AM,60.8,60.8,100,29.98,6.2,SSW,5.8,-,N/A,,Scattered Clouds,210,2013-11-24 00:00:00
12:30 AM,59.0,59.0,100,29.98,6.2,SW,4.6,-,N/A,,Scattered Clouds,220,2013-11-24 00:30:00
1:00 AM,59.0,59.0,100,29.95,6.2,SW,3.5,-,N/A,,Scattered Clouds,230,2013-11-24 01:00:00
1:30 AM,57.2,57.2,100,29.95,6.2,Variable,2.3,-,N/A,,Scattered Clouds,0,2013-11-24 01:30:00
2:00 AM,57.2,57.2,100,29.95,6.2,WSW,3.5,-,N/A,,Scattered Clouds,240,2013-11-24 02:00:00
2:30 AM,57.2,57.2,100,29.95,6.2,SW,5.8,-,N/A,,Scattered Clouds,220,2013-11-24 02:30:00
3:00 AM,58,58,98,29.93,6,SW,8.1,,,,Partly Cloudy,220,2013-11-24 03:00:00
3:00 AM,57.2,57.2,100,29.95,6.2,SW,8.1,-,N/A,,Scattered Clouds,220,2013-11-24 03:00:00
3:30 AM,57.2,57.2,100,29.95,6.2,SW,6.9,-,N/A,,Scattered Clouds,220,2013-11-24 03:30:00
4:00 AM,57.2,57.2,100,29.95,6.2,SW,5.8,-,N/A,,Scattered Clouds,230,2013-11-24 04:00:00
4:30 AM,57.2,57.2,100,29.95,6.2,SW,6.9,-,N/A,,Scattered Clouds,220,2013-11-24 04:30:00
5:00 AM,59.0,57.2,94,29.95,6.2,SSW,8.1,-,N/A,,Scattered Clouds,200,2013-11-24 05:00:00
5:30 AM,59.0,57.2,94,29.95,6.2,SSW,5.8,-,N/A,,Scattered Clouds,200,2013-11-24 05:30:00
6:00 AM,59,57,91,29.91,6,SSW,6.9,,,,Partly Cloudy,200,2013-11-24 06:00:00
6:00 AM,59.0,57.2,94,29.92,6.2,SSW,6.9,-,N/A,,Scattered Clouds,200,2013-11-24 06:00:00
6:30 AM,59.0,57.2,94,29.92,6.2,South,6.9,-,N/A,,Scattered Clouds,180,2013-11-24 06:30:00
7:00 AM,57.2,55.4,94,29.92,6.2,South,6.9,-,N/A,,Scattered Clouds,180,2013-11-24 07:00:00
7:30 AM,59.0,57.2,94,29.92,6.2,South,8.1,-,N/A,,Scattered Clouds,190,2013-11-24 07:30:00
8:00 AM,59.0,57.2,94,29.92,6.2,South,6.9,-,N/A,,Scattered Clouds,190,2013-11-24 08:00:00
8:30 AM,59.0,57.2,94,29.95,6.2,Variable,3.5,-,N/A,,Scattered Clouds,0,2013-11-24 08:30:00
9:00 AM,61,57,83,29.92,6,WNW,2.3,,,,Partly Cloudy,300,2013-11-24 09:00:00
9:00 AM,60.8,57.2,88,29.95,6.2,Variable,2.3,-,N/A,,Scattered Clouds,0,2013-11-24 09:00:00
9:30 AM,62.6,57.2,82,29.95,6.2,Variable,2.3,-,N/A,,Scattered Clouds,0,2013-11-24 09:30:00
10:00 AM,64.4,59.0,83,29.95,6.2,WNW,5.8,-,N/A,,Scattered Clouds,290,2013-11-24 10:00:00
10:30 AM,66.2,59.0,78,29.95,6.2,WNW,4.6,-,N/A,,Scattered Clouds,290,2013-11-24 10:30:00
11:00 AM,66.2,59.0,78,29.95,6.2,West,8.1,-,N/A,,Mostly Cloudy,270,2013-11-24 11:00:00
11:30 AM,66.2,60.8,83,29.95,6.2,NW,9.2,-,N/A,,Mostly Cloudy,310,2013-11-24 11:30:00
12:00 PM,66,60,76,29.89,6,WNW,10.4,,,,Mostly Cloudy,300,2013-11-24 12:00:00
12:00 PM,66.2,60.8,83,29.92,6.2,WNW,10.4,-,N/A,,Mostly Cloudy,300,2013-11-24 12:00:00
12:30 PM,66.2,60.8,83,29.92,6.2,West,10.4,-,N/A,,Mostly Cloudy,260,2013-11-24 12:30:00
1:00 PM,68.0,60.8,78,29.89,6.2,WSW,12.7,-,N/A,,Mostly Cloudy,240,2013-11-24 13:00:00
1:30 PM,68.0,59.0,73,29.89,6.2,West,11.5,-,N/A,,Mostly Cloudy,270,2013-11-24 13:30:00
2:00 PM,68.0,60.8,78,29.89,6.2,WNW,10.4,-,N/A,,Mostly Cloudy,300,2013-11-24 14:00:00
2:30 PM,68.0,59.0,73,29.86,6.2,WNW,10.4,-,N/A,,Mostly Cloudy,290,2013-11-24 14:30:00
3:00 PM,69,59,62,29.81,6,West,9.2,,,,Mostly Cloudy,260,2013-11-24 15:00:00
3:00 PM,69.8,59.0,68,29.86,6.2,West,9.2,-,N/A,,Mostly Cloudy,260,2013-11-24 15:00:00
3:30 PM,69.8,59.0,68,29.86,6.2,WSW,9.2,-,N/A,,Mostly Cloudy,240,2013-11-24 15:30:00
4:00 PM,71.6,57.2,60,29.86,6.2,West,10.4,-,N/A,,Mostly Cloudy,280,2013-11-24 16:00:00
4:30 PM,69.8,59.0,68,29.86,6.2,West,8.1,-,N/A,,Unknown,270,2013-11-24 16:30:00
5:00 PM,68.0,59.0,73,29.86,6.2,West,10.4,-,N/A,,Mostly Cloudy,280,2013-11-24 17:00:00
5:30 PM,66.2,60.8,83,29.86,6.2,WNW,11.5,-,N/A,,Mostly Cloudy,290,2013-11-24 17:30:00
6:00 PM,65,60,78,29.84,6,WNW,9.2,,,,Mostly Cloudy,300,2013-11-24 18:00:00
6:00 PM,66.2,60.8,83,29.89,6.2,WNW,10.4,-,N/A,,Mostly Cloudy,300,2013-11-24 18:00:00
6:30 PM,64.4,60.8,88,29.89,6.2,NNW,8.1,-,N/A,,Mostly Cloudy,340,2013-11-24 18:30:00
7:00 PM,62.6,60.8,94,29.89,6.2,NNW,10.4,-,N/A,,Unknown,340,2013-11-24 19:00:00
7:30 PM,60.8,59.0,94,29.92,6.2,NNW,10.4,-,N/A,,Unknown,340,2013-11-24 19:30:00
8:00 PM,60.8,59.0,94,29.92,6.2,NNW,5.8,-,N/A,,Mostly Cloudy,340,2013-11-24 20:00:00
8:30 PM,60.8,59.0,94,29.92,6.2,NNW,3.5,-,N/A,,Mostly Cloudy,340,2013-11-24 20:30:00
9:00 PM,61,59,89,29.90,6,West,4.6,,,,Mostly Cloudy,280,2013-11-24 21:00:00
9:00 PM,60.8,59.0,94,29.92,6.2,West,3.5,-,N/A,,Mostly Cloudy,280,2013-11-24 21:00:00
9:30 PM,60.8,59.0,94,29.92,6.2,West,3.5,-,N/A,,Mostly Cloudy,270,2013-11-24 21:30:00
10:00 PM,60.8,59.0,94,29.92,6.2,Calm,Calm,-,N/A,,Mostly Cloudy,0,2013-11-24 22:00:00
10:30 PM,60.8,59.0,94,29.92,6.2,WSW,3.5,-,N/A,,Mostly Cloudy,240,2013-11-24 22:30:00
11:00 PM,59.0,59.0,100,29.92,3.1,North,5.8,-,N/A,Rain,Rain,350,2013-11-24 23:00:00
11:30 PM,59.0,59.0,100,29.92,3.7,NNE,8.1,-,N/A,,Mostly Cloudy,30,2013-11-24 23:30:00